Flight Track Log - Related Links

Times and Time Zones

All times are in EDT time to prevent confusion due to time zone crossing. See the BOE5 flight status page for this flight to view local times or setup timezone preferences in your user account.

Time Position Orientation Groundspeed Altitude Reporting Facility
EDT Latitude Longitude Course Direction KTS MPH feet Rate Location/Type
Fri 04:03:08 PM 47.5117 -122.2878 147° Southeast 173 199 1,300  Level Seattle Center
Fri 04:04:28 PM 47.4417 -122.2217 147° Southeast 276 318 4,000 1,629 Climbing Seattle Center
Fri 04:05:28 PM 47.3692 -122.1733 156° South 305 351 5,100 1,429 Climbing Seattle Center
Fri 04:06:13 PM 47.3064 -122.1678 177° South 293 337 6,500 1,869 Climbing Seattle Center
Fri 04:06:29 PM 47.2872 -122.1661 177° South 297 342 7,000 1,014 Climbing Seattle Center
Fri 04:07:24 PM 47.2139 -122.1839 189° South 293 337 7,700 1,065 Climbing Seattle Center
Fri 04:08:16 PM 47.1908 -122.2772 250° West 294 338 8,900 2,164 Climbing Seattle Center
Fri 04:08:25 PM 47.1897 -122.2983 266° West 296 341 9,900 3,443 Climbing Seattle Center
Fri 04:09:17 PM 47.1875 -122.4117 268° West 305 351 12,400 3,246 Climbing Seattle Center
Fri 04:09:26 PM 47.1864 -122.4336 266° West 312 359 13,200 2,459 Climbing Seattle Center
Fri 04:10:18 PM 47.1844 -122.5411 269° West 315 362 14,900 956 Climbing Seattle Center
Fri 04:11:19 PM 47.1811 -122.6747 268° West 325 374 15,000 49 Climbing Seattle Center
Fri 04:12:21 PM 47.1781 -122.8061 268° West 323 372 15,000  Level Seattle Center
Fri 04:13:22 PM 47.1742 -122.9469 268° West 321 369 15,000  Level Seattle Center
Fri 04:14:23 PM 47.1706 -123.0781 268° West 321 369 15,000  Level Seattle Center
Fri 04:15:25 PM 47.1664 -123.2089 267° West 321 369 15,000  Level Seattle Center
Fri 04:16:26 PM 47.1628 -123.3386 268° West 318 366 15,000  Level Seattle Center
Fri 04:17:27 PM 47.1050 -123.4372 229° Southwest 290 334 15,000  Level Seattle Center
Fri 04:18:28 PM 47.0347 -123.4631 194° South 260 299 15,000  Level Seattle Center
Fri 04:19:29 PM 46.9636 -123.4986 199° South 263 303 15,000  Level Seattle Center
Fri 04:20:31 PM 46.8958 -123.5328 199° South 261 300 15,000  Level Seattle Center
Fri 04:21:32 PM 46.8267 -123.5653 198° South 263 303 15,000  Level Seattle Center
Fri 04:22:33 PM 46.7583 -123.5978 198° South 260 299 15,000  Level Seattle Center
Fri 04:23:34 PM 46.6892 -123.6314 198° South 264 304 15,000  Level Seattle Center
Fri 04:24:36 PM 46.6208 -123.6642 198° South 262 302 15,000  Level Seattle Center
Fri 04:25:37 PM 46.5517 -123.6958 197° South 262 302 15,000  Level Seattle Center
Fri 04:26:38 PM 46.4689 -123.7342 198° South 264 304 15,000 -49 Level Seattle Center
Fri 04:27:39 PM 46.3992 -123.7667 198° South 265 305 14,900 -49 Descending Seattle Center
Fri 04:28:40 PM 46.3272 -123.7986 197° South 269 310 14,900  Level Seattle Center
Fri 04:29:42 PM 46.2569 -123.8350 200° South 267 307 14,900  Level Seattle Center
Fri 04:30:43 PM 46.1867 -123.8681 198° South 265 305 14,900  Level Seattle Center
Fri 04:31:44 PM 46.1142 -123.8903 192° South 268 308 14,900  Level Seattle Center
Fri 04:32:45 PM 46.0408 -123.8944 182° South 266 306 14,900  Level Seattle Center
Fri 04:33:47 PM 45.9675 -123.9019 184° South 265 305 14,900  Level Seattle Center
Fri 04:34:48 PM 45.8933 -123.9108 185° South 266 306 14,900  Level Seattle Center
Fri 04:35:49 PM 45.8189 -123.9194 185° South 268 308 14,900  Level Seattle Center
Fri 04:36:50 PM 45.7283 -123.9331 186° South 269 310 14,900  Level Seattle Center
Fri 04:37:51 PM 45.6550 -123.9397 184° South 270 311 14,900  Level Seattle Center
Fri 04:38:53 PM 45.5811 -123.9494 185° South 268 308 14,900  Level Seattle Center
Fri 04:39:54 PM 45.5086 -123.9578 185° South 264 304 14,900  Level Seattle Center
Fri 04:40:55 PM 45.4344 -123.9636 183° South 268 308 14,900  Level Seattle Center
Fri 04:41:56 PM 45.3614 -123.9736 185° South 265 305 14,900 49 Level Seattle Center
Fri 04:42:58 PM 45.2886 -123.9817 184° South 264 304 15,000 49 Climbing Seattle Center
Fri 04:43:59 PM 45.2164 -123.9919 186° South 264 304 15,000  Level Seattle Center
Fri 04:45:00 PM 45.1342 -123.9989 183° South 253 291 15,000  Level Seattle Center
Fri 04:46:02 PM 45.0661 -124.0061 184° South 249 287 15,000  Level Seattle Center
Fri 04:47:03 PM 44.9911 -124.0139 184° South 268 308 15,000  Level Seattle Center
Fri 04:48:04 PM 44.9156 -124.0231 185° South 275 316 15,000  Level Seattle Center
Fri 04:49:06 PM 44.8400 -124.0322 185° South 275 316 15,000  Level Seattle Center
Fri 04:50:07 PM 44.7647 -124.0408 185° South 276 318 15,000  Level Seattle Center
Fri 04:51:08 PM 44.6853 -124.0489 184° South 289 333 15,000  Level Seattle Center
Fri 04:52:10 PM 44.5850 -124.0611 185° South 302 348 15,000  Level Seattle Center
Fri 04:53:12 PM 44.5033 -124.0672 183° South 298 343 15,000  Level Seattle Center
Fri 04:54:12 PM 44.4206 -124.0725 183° South 299 344 15,000  Level Seattle Center
Fri 04:55:14 PM 44.3408 -124.0683 178° South 306 352 15,000  Level Seattle Center
Fri 04:56:15 PM 44.3375 -123.9747 93° East 282 325 15,000  Level Seattle Center
Fri 04:57:16 PM 44.4164 -123.9650 North 288 331 15,000  Level Seattle Center
Fri 04:58:17 PM 44.4900 -124.0089 337° Northwest 287 330 15,000  Level Seattle Center
Fri 04:59:19 PM 44.5633 -124.0550 336° Northwest 288 331 15,000  Level Seattle Center
Fri 05:00:20 PM 44.6439 -124.0456 North 289 333 15,000  Level Seattle Center
Fri 05:01:22 PM 44.7261 -124.0250 10° North 298 343 15,000  Level Seattle Center
Fri 05:02:23 PM 44.8261 -124.0019 North 301 346 15,000  Level Seattle Center
Fri 05:03:24 PM 44.9097 -123.9789 11° North 302 348 15,000  Level Seattle Center
Fri 05:04:25 PM 44.9933 -123.9600 North 303 349 15,000  Level Seattle Center
Fri 05:05:27 PM 45.0764 -123.9392 10° North 301 346 15,000  Level Seattle Center
Fri 05:06:28 PM 45.1592 -123.9192 10° North 301 346 15,000  Level Seattle Center
Fri 05:07:29 PM 45.2433 -123.8981 10° North 303 349 15,000  Level Seattle Center
Fri 05:08:30 PM 45.3306 -123.8756 10° North 313 360 15,000 -49 Level Seattle Center
Fri 05:09:32 PM 45.4158 -123.8564 North 311 358 14,900 -49 Descending Seattle Center
Fri 05:10:33 PM 45.5014 -123.8356 10° North 312 359 14,900  Level Seattle Center
Fri 05:11:34 PM 45.5864 -123.8142 10° North 311 358 14,900 -49 Level Seattle Center
Fri 05:12:36 PM 45.6722 -123.7928 10° North 312 359 14,800 -488 Descending Seattle Center
Fri 05:13:37 PM 45.7583 -123.7694 11° North 315 362 13,900 -443 Descending Seattle Center
Fri 05:14:38 PM 45.8583 -123.7431 10° North 308 354 13,900  Level Seattle Center
Fri 05:15:39 PM 45.9422 -123.7258 North 305 351 13,900  Level Seattle Center
Fri 05:16:41 PM 46.0258 -123.7044 10° North 305 351 13,900  Level Seattle Center
Fri 05:17:42 PM 46.1106 -123.6828 10° North 309 356 13,900  Level Seattle Center
Fri 05:18:43 PM 46.1953 -123.6603 10° North 310 357 13,900  Level Seattle Center
Fri 05:19:45 PM 46.2811 -123.6394 10° North 313 360 13,900  Level Seattle Center
Fri 05:20:46 PM 46.3647 -123.6183 10° North 309 356 13,900 49 Level Seattle Center
Fri 05:21:47 PM 46.4608 -123.5903 11° North 311 358 14,000 49 Climbing Seattle Center
Fri 05:22:49 PM 46.5447 -123.5717 North 307 353 14,000  Level Seattle Center
Fri 05:23:50 PM 46.6286 -123.5478 11° North 311 358 14,000  Level Seattle Center
Fri 05:24:51 PM 46.7136 -123.5292 North 311 358 14,000  Level Seattle Center
Fri 05:25:53 PM 46.7989 -123.5067 10° North 314 361 14,000  Level Seattle Center
Fri 05:26:54 PM 46.8825 -123.4803 12° North 312 359 14,000  Level Seattle Center
Fri 05:27:55 PM 46.9828 -123.4519 11° North 310 357 14,000  Level Seattle Center
Fri 05:28:57 PM 47.0675 -123.4283 11° North 309 356 14,000  Level Seattle Center
Fri 05:29:58 PM 47.1600 -123.4019 11° North 315 362 14,000  Level Seattle Center
Fri 05:30:59 PM 47.2381 -123.3503 24° Northeast 309 356 14,000  Level Seattle Center
Fri 05:32:01 PM 47.3111 -123.3064 22° Northeast 312 359 14,000  Level Seattle Center
Fri 05:33:02 PM 47.3903 -123.2564 23° Northeast 314 361 14,000 -49 Level Seattle Center
Fri 05:34:03 PM 47.4908 -123.1911 24° Northeast 332 382 13,900 -732 Descending Seattle Center
Fri 05:35:05 PM 47.5783 -123.1372 23° Northeast 338 389 12,500 -1,122 Descending Seattle Center
Fri 05:36:06 PM 47.6608 -123.0844 23° Northeast 329 379 11,600 -795 Descending Seattle Center
Fri 05:36:28 PM 47.6936 -123.0614 25° Northeast 325 374 11,400 -590 Descending Seattle Center
Fri 05:37:07 PM 47.7242 -123.0000 53° Northeast 317 365 11,000 -590 Descending Seattle Center
Fri 05:37:29 PM 47.7431 -122.9561 57° Northeast 296 341 10,800 -774 Descending Seattle Center
Fri 05:38:09 PM 47.7675 -122.8992 57° Northeast 293 337 10,200 -1,574 Descending Seattle Center
Fri 05:38:30 PM 47.7833 -122.8586 60° Northeast 280 322 9,200 -2,361 Descending Seattle Center
Fri 05:39:10 PM 47.8069 -122.8031 58° Northeast 277 319 7,800 -2,361 Descending Seattle Center
Fri 05:39:31 PM 47.8222 -122.7650 59° Northeast 270 311 6,800 -2,164 Descending Seattle Center
Fri 05:40:11 PM 47.8447 -122.7081 59° Northeast 269 310 5,600 -1,869 Descending Seattle Center
Fri 05:40:32 PM 47.8544 -122.6617 73° East 251 289 4,900 -1,355 Descending Seattle Center
Fri 05:41:13 PM 47.8389 -122.6111 115° Southeast 264 304 4,200 -1,180 Descending Seattle Center
Fri 05:41:33 PM 47.8219 -122.5675 120° Southeast 264 304 3,700 -984 Descending Seattle Center
Fri 05:42:14 PM 47.7844 -122.5175 138° Southeast 266 306 3,200 -700 Descending Seattle Center
Fri 05:42:33 PM 47.7658 -122.5028 152° Southeast 253 291 3,000 -787 Descending Seattle Center
Fri 05:43:15 PM 47.7258 -122.4692 151° Southeast 246 283 2,400 -689 Descending Seattle Center
Fri 05:43:34 PM 47.7067 -122.4531 151° Southeast 232 267 2,300 -290 Descending Seattle Center
Fri 05:44:17 PM 47.6731 -122.4256 151° Southeast 221 254 2,100 -197 Descending Seattle Center
Fri 05:44:35 PM 47.6592 -122.4133 149° Southeast 191 220 2,100 -98 Level Seattle Center
Fri 05:45:18 PM 47.6242 -122.3836 150° Southeast 193 222 2,000 -393 Descending Seattle Center
Fri 05:45:36 PM 47.6133 -122.3731 147° Southeast 171 197 1,700 -885 Descending Seattle Center
Fri 05:46:19 PM 47.5872 -122.3517 151° Southeast 158 182 1,100 -885 Descending Seattle Center
Fri 05:46:37 PM 47.5769 -122.3436 152° Southeast 142 163 800 -774 Descending Seattle Center
Fri 05:47:21 PM 47.5517 -122.3217 150° Southeast 149 171 300 494 Descending Seattle Center
Fri 05:48:02 PM 47.5311 -122.3033 149° Southeast 148 170 1,500 1,180 Climbing Seattle Center
Fri 05:48:22 PM 47.5217 -122.2961 153° Southeast 148 170 1,500  Level Seattle Center
Fri 05:50:00 PM 47.9070 -122.2816 North  Level Estimated

Login

Don't have an account? Register now (free) for customized features, flight alerts, and more!